createdAt,value
2022-11-23T00:01:39.808Z,87.00
2022-11-23T00:04:11.457Z,86.87
2022-11-23T00:06:40.531Z,87.03
2022-11-23T00:09:09.624Z,86.54
2022-11-23T00:11:38.246Z,87.15
2022-11-23T00:14:07.996Z,87.09
2022-11-23T00:16:36.437Z,86.67
2022-11-23T00:19:05.269Z,86.98
2022-11-23T00:21:34.064Z,87.11
2022-11-23T00:24:02.392Z,86.84
2022-11-23T00:26:30.797Z,86.89
2022-11-23T00:28:59.125Z,86.95
2022-11-23T00:31:28.981Z,86.99
2022-11-23T00:33:58.173Z,86.49
2022-11-23T00:36:27.679Z,86.39
2022-11-23T00:38:57.659Z,86.59
2022-11-23T00:41:27.757Z,86.75
2022-11-23T00:43:56.252Z,86.52
2022-11-23T00:46:26.042Z,86.95
2022-11-23T00:48:57.707Z,86.35
2022-11-23T00:51:28.000Z,86.43
2022-11-23T00:53:56.624Z,86.74
2022-11-23T00:56:25.122Z,86.86
2022-11-23T00:58:55.186Z,86.47
2022-11-23T01:01:25.498Z,86.83
2022-11-23T01:03:58.143Z,87.07
2022-11-23T01:06:29.081Z,86.36
2022-11-23T01:08:59.905Z,86.93
2022-11-23T01:11:30.554Z,87.02
2022-11-23T01:13:59.861Z,86.69
2022-11-23T01:16:30.384Z,86.49
2022-11-23T01:19:01.577Z,86.92
2022-11-23T01:21:31.448Z,86.80
2022-11-23T01:23:59.921Z,86.70
2022-11-23T01:26:28.268Z,86.91
2022-11-23T01:28:57.008Z,86.71
2022-11-23T01:31:26.725Z,86.84
2022-11-23T01:33:56.649Z,86.99
2022-11-23T01:36:28.146Z,86.76
2022-11-23T01:38:56.962Z,86.84
2022-11-23T01:41:26.877Z,86.78
2022-11-23T01:43:56.324Z,86.95
2022-11-23T01:46:24.652Z,86.58
2022-11-23T01:48:56.705Z,86.59
2022-11-23T01:51:31.704Z,86.88
2022-11-23T01:54:03.477Z,86.71
2022-11-23T01:56:36.655Z,87.13
2022-11-23T01:59:09.589Z,86.84
2022-11-23T02:01:38.271Z,86.77
2022-11-23T02:04:09.881Z,86.73
2022-11-23T02:06:41.609Z,86.51
2022-11-23T02:09:10.029Z,86.61
2022-11-23T02:11:38.352Z,86.97
2022-11-23T02:14:06.858Z,87.09
2022-11-23T02:16:36.131Z,86.77
2022-11-23T02:19:07.337Z,86.52
2022-11-23T02:21:35.763Z,87.11
2022-11-23T02:24:12.982Z,87.21
2022-11-23T02:26:43.289Z,86.72
2022-11-23T02:29:17.057Z,86.64
2022-11-23T02:31:45.390Z,87.29
2022-11-23T02:34:13.726Z,86.68
2022-11-23T02:36:43.692Z,87.15
2022-11-23T02:39:14.773Z,86.73
2022-11-23T02:41:48.164Z,87.16
2022-11-23T02:44:27.495Z,86.93
2022-11-23T02:46:56.179Z,86.49
2022-11-23T02:49:24.630Z,86.82
2022-11-23T02:51:53.401Z,86.44
2022-11-23T02:54:21.897Z,86.93
2022-11-23T02:56:51.618Z,86.88
2022-11-23T02:59:20.045Z,86.86
2022-11-23T03:01:48.610Z,86.73
2022-11-23T03:04:16.968Z,86.55
2022-11-23T03:06:45.498Z,86.98
2022-11-23T03:09:13.804Z,86.94
2022-11-23T03:11:42.139Z,86.85
2022-11-23T03:14:12.201Z,86.60
2022-11-23T03:16:40.523Z,86.55
2022-11-23T03:19:08.917Z,86.59
2022-11-23T03:21:37.584Z,86.74
2022-11-23T03:24:06.526Z,86.51
2022-11-23T03:26:36.207Z,86.66
2022-11-23T03:29:04.809Z,86.41
2022-11-23T03:31:34.521Z,86.38
2022-11-23T03:34:02.834Z,86.76
2022-11-23T03:36:31.207Z,86.35
2022-11-23T03:38:59.585Z,86.29
2022-11-23T03:41:27.989Z,86.71
2022-11-23T03:43:56.321Z,86.15
2022-11-23T03:46:24.568Z,86.30
2022-11-23T03:48:54.290Z,86.51
2022-11-23T03:51:23.047Z,86.73
2022-11-23T03:53:51.345Z,86.45
2022-11-23T03:56:20.045Z,86.59
2022-11-23T03:58:48.421Z,86.87
2022-11-23T04:01:16.801Z,86.38
2022-11-23T04:03:45.383Z,86.54
2022-11-23T04:06:15.066Z,86.25
2022-11-23T04:08:43.370Z,86.72
2022-11-23T04:11:11.800Z,86.78
2022-11-23T04:13:40.236Z,86.33
2022-11-23T04:16:09.076Z,86.42
2022-11-23T04:18:37.406Z,86.50
2022-11-23T04:21:05.982Z,86.43
2022-11-23T04:23:35.866Z,86.55
2022-11-23T04:26:04.536Z,86.43
2022-11-23T04:28:32.922Z,86.33
2022-11-23T04:31:01.241Z,86.48
2022-11-23T04:33:31.570Z,86.46
2022-11-23T04:36:00.008Z,86.50
2022-11-23T04:38:28.492Z,86.93
2022-11-23T04:40:58.176Z,86.68
2022-11-23T04:43:26.563Z,86.49
2022-11-23T04:45:55.019Z,86.49
2022-11-23T04:48:23.348Z,86.32
2022-11-23T04:50:55.427Z,86.88
2022-11-23T04:53:24.033Z,86.59
2022-11-23T04:55:52.407Z,86.52
2022-11-23T04:58:22.046Z,86.39
2022-11-23T05:00:50.628Z,86.24
2022-11-23T05:03:18.976Z,86.49
2022-11-23T05:05:47.335Z,86.93
2022-11-23T05:08:15.676Z,86.73
2022-11-23T05:10:44.871Z,86.60
2022-11-23T05:13:13.212Z,86.67
2022-11-23T05:15:42.996Z,86.25
2022-11-23T05:18:13.124Z,86.50
2022-11-23T05:20:41.622Z,86.61
2022-11-23T05:23:11.056Z,86.69
2022-11-23T05:25:39.793Z,86.85
2022-11-23T05:28:38.021Z,86.54
2022-11-23T05:30:58.207Z,86.41
2022-11-23T05:33:26.565Z,86.90
2022-11-23T05:35:54.879Z,86.61
2022-11-23T05:38:23.391Z,86.32
2022-11-23T05:40:51.774Z,86.51
2022-11-23T05:43:20.267Z,86.51
2022-11-23T05:45:48.609Z,86.41
2022-11-23T05:48:19.313Z,86.60
2022-11-23T05:50:47.702Z,86.19
2022-11-23T05:53:16.273Z,86.72
2022-11-23T05:55:45.190Z,86.27
2022-11-23T05:58:13.500Z,86.81
2022-11-23T06:00:41.864Z,86.39
2022-11-23T06:03:10.233Z,86.44
2022-11-23T06:05:40.449Z,86.37
2022-11-23T06:08:08.735Z,86.70
2022-11-23T06:10:37.054Z,86.56
2022-11-23T06:13:05.580Z,86.66
2022-11-23T06:15:34.387Z,86.38
2022-11-23T06:18:02.887Z,86.21
2022-11-23T06:20:31.478Z,86.43
2022-11-23T06:23:01.351Z,86.48
2022-11-23T06:25:30.049Z,86.36
2022-11-23T06:27:59.856Z,86.38
2022-11-23T06:30:30.402Z,86.38
2022-11-23T06:32:59.459Z,86.77
2022-11-23T06:35:27.796Z,86.63
2022-11-23T06:37:56.124Z,86.54
2022-11-23T06:40:25.815Z,86.75
2022-11-23T06:42:59.682Z,86.60
2022-11-23T06:45:28.512Z,86.60
2022-11-23T06:47:57.486Z,86.76
2022-11-23T06:50:25.820Z,86.58
2022-11-23T06:52:57.415Z,86.25
2022-11-23T06:55:27.410Z,86.70
2022-11-23T06:57:57.952Z,86.42
2022-11-23T07:00:26.394Z,86.65
2022-11-23T07:02:55.353Z,86.57
2022-11-23T07:05:24.676Z,86.54
2022-11-23T07:07:53.088Z,86.33
2022-11-23T07:10:21.596Z,86.76
2022-11-23T07:12:51.430Z,86.34
2022-11-23T07:15:19.833Z,86.08
2022-11-23T07:17:48.168Z,86.50
2022-11-23T07:20:17.736Z,86.29
2022-11-23T07:22:46.056Z,86.13
2022-11-23T07:25:18.312Z,86.48
2022-11-23T07:27:46.693Z,86.27
2022-11-23T07:30:17.359Z,86.02
2022-11-23T07:32:45.709Z,86.04
2022-11-23T07:35:14.007Z,85.99
2022-11-23T07:37:42.288Z,86.51
2022-11-23T07:40:11.574Z,86.03
2022-11-23T07:42:44.867Z,86.48
2022-11-23T07:45:13.936Z,86.62
2022-11-23T07:47:43.739Z,86.19
2022-11-23T07:50:14.153Z,86.03
2022-11-23T07:52:42.464Z,86.11
2022-11-23T07:55:11.140Z,86.39
2022-11-23T07:57:39.613Z,86.33
2022-11-23T08:00:09.623Z,86.33
2022-11-23T08:02:38.085Z,86.27
2022-11-23T08:05:13.897Z,86.20
2022-11-23T08:07:43.221Z,86.21
2022-11-23T08:10:12.014Z,86.77
2022-11-23T08:12:42.659Z,86.54
2022-11-23T08:15:11.885Z,86.29
2022-11-23T08:17:40.205Z,86.39
2022-11-23T08:20:11.090Z,86.81
2022-11-23T08:22:39.417Z,86.82
2022-11-23T08:25:08.532Z,86.83
2022-11-23T08:27:36.928Z,86.89
2022-11-23T08:30:06.257Z,86.66
2022-11-23T08:32:34.588Z,86.43
2022-11-23T08:35:02.879Z,87.05
2022-11-23T08:37:34.833Z,86.30
2022-11-23T08:40:03.188Z,86.93
2022-11-23T08:42:31.476Z,86.57
2022-11-23T08:45:03.116Z,86.83
2022-11-23T08:47:33.129Z,86.70
2022-11-23T08:50:01.538Z,86.55
2022-11-23T08:52:29.932Z,86.65
2022-11-23T08:54:59.869Z,86.08
2022-11-23T08:57:28.761Z,86.04
2022-11-23T08:59:57.865Z,86.12
2022-11-23T09:02:26.173Z,86.15
2022-11-23T09:04:54.536Z,86.60
2022-11-23T09:07:22.973Z,86.23
2022-11-23T09:09:51.386Z,85.92
2022-11-23T09:12:21.071Z,85.83
2022-11-23T09:14:49.437Z,86.35
2022-11-23T09:17:17.757Z,86.19
2022-11-23T09:19:46.080Z,86.19
2022-11-23T09:22:14.460Z,86.39
2022-11-23T09:24:42.793Z,86.15
2022-11-23T09:27:11.219Z,86.13
2022-11-23T09:29:40.926Z,86.17
2022-11-23T09:32:09.271Z,85.54
2022-11-23T09:34:37.621Z,86.35
2022-11-23T09:37:06.322Z,85.80
2022-11-23T09:39:34.680Z,85.82
2022-11-23T09:42:47.563Z,86.26
2022-11-23T09:45:23.808Z,86.08
2022-11-23T09:48:10.213Z,85.62
2022-11-23T09:50:48.054Z,85.65
2022-11-23T09:53:21.034Z,85.21
2022-11-23T09:55:52.625Z,85.19
2022-11-23T09:58:23.421Z,85.35
2022-11-23T10:01:01.252Z,85.25
2022-11-23T10:03:30.419Z,85.53
2022-11-23T10:06:06.428Z,85.33
2022-11-23T10:08:44.211Z,85.43
2022-11-23T10:11:42.548Z,85.37
2022-11-23T10:14:27.217Z,85.14
2022-11-23T10:17:05.016Z,85.28
2022-11-23T10:19:47.209Z,85.34
2022-11-23T10:22:22.577Z,84.96
2022-11-23T10:24:54.132Z,85.29
2022-11-23T10:27:25.045Z,85.43
2022-11-23T10:29:53.461Z,85.25
2022-11-23T10:32:31.447Z,85.35
2022-11-23T10:35:05.401Z,85.15
2022-11-23T10:37:34.822Z,85.08
2022-11-23T10:40:03.290Z,84.75
2022-11-23T10:42:35.068Z,84.78
2022-11-23T10:45:04.610Z,84.80
2022-11-23T10:47:40.532Z,84.65
2022-11-23T10:50:29.730Z,84.72
2022-11-23T10:53:00.569Z,84.36
2022-11-23T10:55:31.119Z,84.25
2022-11-23T10:57:59.832Z,84.48
2022-11-23T11:00:31.098Z,84.23
2022-11-23T11:03:03.293Z,84.24
2022-11-23T11:08:25.065Z,84.27
2022-11-23T11:10:59.588Z,84.25
2022-11-23T11:13:31.114Z,84.43
2022-11-23T11:16:02.084Z,84.06
2022-11-23T11:18:33.858Z,84.21
2022-11-23T11:21:06.804Z,84.17
2022-11-23T11:23:40.157Z,84.00
2022-11-23T11:26:19.336Z,84.09
2022-11-23T11:28:51.561Z,83.69
2022-11-23T11:31:28.818Z,83.77
2022-11-23T11:34:08.304Z,83.88
2022-11-23T11:36:42.057Z,83.94
2022-11-23T11:39:19.399Z,83.64
2022-11-23T11:41:50.360Z,83.37
2022-11-23T11:44:22.353Z,83.20
2022-11-23T11:46:57.804Z,82.68
2022-11-23T11:49:32.391Z,82.48
2022-11-23T11:52:07.161Z,82.37
2022-11-23T11:54:43.887Z,82.13
2022-11-23T11:57:20.720Z,81.89
2022-11-23T11:59:52.952Z,82.12
2022-11-23T12:02:25.960Z,81.68
2022-11-23T12:05:08.755Z,81.79
2022-11-23T12:07:40.954Z,81.60
2022-11-23T12:10:16.553Z,81.79
2022-11-23T12:12:49.366Z,81.85
2022-11-23T12:15:47.904Z,81.20
2022-11-23T12:18:25.713Z,81.14
2022-11-23T12:21:03.843Z,80.84
2022-11-23T12:23:48.157Z,80.17
2022-11-23T12:26:27.618Z,79.92
2022-11-23T12:29:27.125Z,78.97
2022-11-23T12:32:04.338Z,78.54
2022-11-23T12:34:53.191Z,78.32
2022-11-23T12:37:36.010Z,77.80
2022-11-23T12:40:21.674Z,76.70
2022-11-23T12:42:52.837Z,76.33
2022-11-23T12:45:48.452Z,76.20
2022-11-23T12:48:28.066Z,75.96
2022-11-23T12:51:08.961Z,75.63
2022-11-23T12:53:51.253Z,75.62
2022-11-23T12:56:34.097Z,75.33
2022-11-23T12:59:02.612Z,75.34
2022-11-23T13:01:36.150Z,75.51
2022-11-23T13:04:46.134Z,74.81
2022-11-23T13:07:49.078Z,74.81
2022-11-23T13:10:29.458Z,75.73
2022-11-23T13:13:18.865Z,75.27
2022-11-23T13:16:12.118Z,75.31
2022-11-23T13:19:04.697Z,75.55
2022-11-23T13:21:38.785Z,75.18
2022-11-23T13:24:26.060Z,74.74
2022-11-23T13:27:32.442Z,74.81
2022-11-23T13:30:11.013Z,74.95
2022-11-23T13:32:53.950Z,74.30
2022-11-23T13:35:52.724Z,73.46
2022-11-23T13:38:45.340Z,73.60
2022-11-23T13:42:01.609Z,73.35
2022-11-23T13:44:33.472Z,73.53
2022-11-23T13:47:05.682Z,73.29
2022-11-23T13:49:39.096Z,72.68
2022-11-23T13:52:32.697Z,72.51
2022-11-23T13:55:09.839Z,72.78
2022-11-23T13:57:39.480Z,72.38
2022-11-23T14:00:45.028Z,71.65
2022-11-23T14:03:50.287Z,72.42
2022-11-23T14:06:38.322Z,73.60
2022-11-23T14:09:17.256Z,74.50
2022-11-23T14:11:58.606Z,74.68
2022-11-23T14:14:34.692Z,75.42
2022-11-23T14:17:48.274Z,75.25
2022-11-23T14:20:29.037Z,75.34
2022-11-23T14:23:16.252Z,74.86
2022-11-23T14:25:56.977Z,74.74
2022-11-23T14:28:40.798Z,74.22
2022-11-23T14:31:24.103Z,74.21
2022-11-23T14:34:00.402Z,75.17
2022-11-23T14:36:42.464Z,75.26
2022-11-23T14:39:38.046Z,75.48
2022-11-23T14:42:13.054Z,76.04
2022-11-23T14:44:44.176Z,76.20
2022-11-23T14:47:13.395Z,75.97
2022-11-23T14:49:50.616Z,75.91
2022-11-23T14:52:23.690Z,76.42
2022-11-23T14:54:54.265Z,76.43
2022-11-23T14:57:25.872Z,76.34
2022-11-23T14:59:58.020Z,76.47
2022-11-23T15:02:35.037Z,76.51
2022-11-23T15:05:12.241Z,76.82
2022-11-23T15:07:49.036Z,76.70
2022-11-23T15:10:34.127Z,76.82
2022-11-23T15:13:02.587Z,77.20
2022-11-23T15:15:33.197Z,76.90
2022-11-23T15:18:08.915Z,77.23
2022-11-23T15:20:45.646Z,77.14
2022-11-23T15:23:21.943Z,77.03
2022-11-23T15:25:54.422Z,77.29
2022-11-23T15:28:28.032Z,77.73
2022-11-23T15:30:58.497Z,77.44
2022-11-23T15:33:27.754Z,77.37
2022-11-23T15:35:56.466Z,77.58
2022-11-23T15:38:26.277Z,77.47
2022-11-23T15:41:05.055Z,77.53
2022-11-23T15:43:33.481Z,78.20
2022-11-23T15:46:12.872Z,78.09
2022-11-23T15:48:41.465Z,78.12
2022-11-23T15:51:22.546Z,78.01
2022-11-23T15:53:54.080Z,77.72
2022-11-23T15:56:26.343Z,78.17
2022-11-23T15:58:55.457Z,78.25
2022-11-23T16:01:24.403Z,78.35
2022-11-23T16:03:55.772Z,77.88
2022-11-23T16:06:40.145Z,78.05
2022-11-23T16:09:54.908Z,78.73
2022-11-23T16:12:28.608Z,78.39
2022-11-23T16:14:58.474Z,78.07
2022-11-23T16:17:28.300Z,78.41
2022-11-23T16:19:58.763Z,78.21
2022-11-23T16:22:31.749Z,78.75
2022-11-23T16:25:06.788Z,78.99
2022-11-23T16:27:36.610Z,78.59
2022-11-23T16:30:06.541Z,79.04
2022-11-23T16:32:35.020Z,78.44
2022-11-23T16:35:18.106Z,78.57
2022-11-23T16:37:47.293Z,79.19
2022-11-23T16:40:17.276Z,79.06
2022-11-23T16:42:47.178Z,79.09
2022-11-23T16:45:15.656Z,78.78
2022-11-23T16:47:53.436Z,78.83
2022-11-23T16:50:22.189Z,79.29
2022-11-23T16:52:51.017Z,79.34
2022-11-23T16:55:21.023Z,79.09
2022-11-23T16:57:50.369Z,78.87
2022-11-23T17:00:22.345Z,79.07
2022-11-23T17:02:50.788Z,79.63
2022-11-23T17:05:21.353Z,79.37
2022-11-23T17:07:49.781Z,78.93
2022-11-23T17:10:20.135Z,79.55
2022-11-23T17:12:52.033Z,79.15
2022-11-23T17:15:23.356Z,79.31
2022-11-23T17:17:52.053Z,79.13
2022-11-23T17:20:20.566Z,79.25
2022-11-23T17:22:51.558Z,79.41
2022-11-23T17:25:21.349Z,79.51
2022-11-23T17:27:49.721Z,79.61
2022-11-23T17:30:22.415Z,79.25
2022-11-23T17:32:51.074Z,79.58
2022-11-23T17:35:19.689Z,79.93
2022-11-23T17:37:48.535Z,79.87
2022-11-23T17:40:18.128Z,79.36
2022-11-23T17:42:55.097Z,79.85
2022-11-23T17:45:23.580Z,80.15
2022-11-23T17:47:51.975Z,79.80
2022-11-23T17:50:20.459Z,79.47
2022-11-23T17:52:49.473Z,80.00
2022-11-23T17:55:18.087Z,80.07
2022-11-23T17:57:46.522Z,80.07
2022-11-23T18:00:20.765Z,79.77
2022-11-23T18:02:49.553Z,80.15
2022-11-23T18:05:21.819Z,80.18
2022-11-23T18:07:51.223Z,79.78
2022-11-23T18:10:20.202Z,80.23
2022-11-23T18:12:48.867Z,80.15
2022-11-23T18:15:18.747Z,80.01
2022-11-23T18:17:47.115Z,80.00
2022-11-23T18:20:15.896Z,80.00
2022-11-23T18:22:44.243Z,80.51
2022-11-23T18:25:12.578Z,80.34
2022-11-23T18:27:41.421Z,80.35
2022-11-23T18:30:10.841Z,80.01
2022-11-23T18:32:40.869Z,80.13
2022-11-23T18:35:10.692Z,80.15
2022-11-23T18:37:39.922Z,80.28
2022-11-23T18:40:09.355Z,80.08
2022-11-23T18:42:38.086Z,80.24
2022-11-23T18:45:09.127Z,80.10
2022-11-23T18:47:37.636Z,80.31
2022-11-23T18:50:09.572Z,80.73
2022-11-23T18:52:41.065Z,80.54
2022-11-23T18:55:09.753Z,80.65
2022-11-23T18:57:38.173Z,80.69
2022-11-23T19:00:08.184Z,80.59
2022-11-23T19:02:38.186Z,80.28
2022-11-23T19:05:13.877Z,80.35
2022-11-23T19:07:42.345Z,80.11
2022-11-23T19:10:11.605Z,80.45
2022-11-23T19:12:40.327Z,80.48
2022-11-23T19:15:09.781Z,80.81
2022-11-23T19:17:38.580Z,80.11
2022-11-23T19:20:10.600Z,80.38
2022-11-23T19:22:42.841Z,80.15
2022-11-23T19:25:11.390Z,80.21
2022-11-23T19:27:40.409Z,80.84
2022-11-23T19:30:10.008Z,80.60
2022-11-23T19:32:38.849Z,80.09
2022-11-23T19:35:08.013Z,80.29
2022-11-23T19:37:38.715Z,80.89
2022-11-23T19:40:10.812Z,80.44
2022-11-23T19:42:39.414Z,80.81
2022-11-23T19:45:08.865Z,80.98
2022-11-23T19:47:38.046Z,81.47
2022-11-23T19:50:07.469Z,81.20
2022-11-23T19:53:09.842Z,81.55
2022-11-23T19:55:27.414Z,81.38
2022-11-23T19:57:55.727Z,80.78
2022-11-23T20:00:24.059Z,80.86
2022-11-23T20:02:53.874Z,80.89
2022-11-23T20:05:22.183Z,80.88
2022-11-23T20:07:50.586Z,81.35
2022-11-23T20:10:19.110Z,81.71
2022-11-23T20:12:48.806Z,81.57
2022-11-23T20:15:17.457Z,81.57
2022-11-23T20:17:48.790Z,82.07
2022-11-23T20:20:17.324Z,82.16
2022-11-23T20:22:45.724Z,82.12
2022-11-23T20:25:14.466Z,81.98
2022-11-23T20:27:43.011Z,82.14
2022-11-23T20:30:13.348Z,82.05
2022-11-23T20:32:41.678Z,81.71
2022-11-23T20:35:10.474Z,81.46
2022-11-23T20:37:38.851Z,81.99
2022-11-23T20:40:08.304Z,81.87
2022-11-23T20:42:37.179Z,81.62
2022-11-23T20:45:06.873Z,81.73
2022-11-23T20:47:37.363Z,81.72
2022-11-23T20:50:07.098Z,81.73
2022-11-23T20:52:37.626Z,81.67
2022-11-23T20:55:07.180Z,81.86
2022-11-23T20:57:35.741Z,81.30
2022-11-23T21:00:05.645Z,81.41
2022-11-23T21:02:34.114Z,81.28
2022-11-23T21:05:03.928Z,81.95
2022-11-23T21:07:32.286Z,81.58
2022-11-23T21:10:00.690Z,81.86
2022-11-23T21:12:50.479Z,82.01
2022-11-23T21:15:19.076Z,82.06
2022-11-23T21:17:47.565Z,81.55
2022-11-23T21:20:17.765Z,81.51
2022-11-23T21:22:46.357Z,81.26
2022-11-23T21:25:14.657Z,81.89
2022-11-23T21:27:43.130Z,81.35
2022-11-23T21:30:12.645Z,81.52
2022-11-23T21:32:40.983Z,82.10
2022-11-23T21:35:09.757Z,82.10
2022-11-23T21:37:40.282Z,82.14
2022-11-23T21:40:11.123Z,81.57
2022-11-23T21:42:39.684Z,82.00
2022-11-23T21:45:09.560Z,81.71
2022-11-23T21:47:38.120Z,81.74
2022-11-23T21:50:08.550Z,82.53
2022-11-23T21:52:36.856Z,81.93
2022-11-23T21:55:08.037Z,82.42
2022-11-23T21:57:36.627Z,82.17
2022-11-23T22:00:05.660Z,82.93
2022-11-23T22:02:35.093Z,82.37
2022-11-23T22:05:04.073Z,82.28
2022-11-23T22:07:34.910Z,82.87
2022-11-23T22:10:03.215Z,82.68
2022-11-23T22:12:36.358Z,83.04
2022-11-23T22:15:05.016Z,83.29
2022-11-23T22:17:33.598Z,82.83
2022-11-23T22:20:02.106Z,82.87
2022-11-23T22:22:30.857Z,83.36
2022-11-23T22:24:59.107Z,83.34
2022-11-23T22:27:27.628Z,82.95
2022-11-23T22:29:57.386Z,83.01
2022-11-23T22:32:25.773Z,82.89
2022-11-23T22:34:54.168Z,83.51
2022-11-23T22:37:22.597Z,83.05
2022-11-23T22:39:51.229Z,83.32
2022-11-23T22:42:20.139Z,83.50
2022-11-23T22:44:48.497Z,83.04
2022-11-23T22:47:18.196Z,83.58
2022-11-23T22:49:46.830Z,83.67
2022-11-23T22:52:15.329Z,83.69
2022-11-23T22:54:43.723Z,83.85
2022-11-23T22:57:12.166Z,83.96
2022-11-23T22:59:40.581Z,83.41
2022-11-23T23:02:08.990Z,83.80
2022-11-23T23:04:38.888Z,83.43
2022-11-23T23:07:07.251Z,84.13
2022-11-23T23:09:35.806Z,83.60
2022-11-23T23:12:04.143Z,83.85
2022-11-23T23:14:32.669Z,83.53
2022-11-23T23:17:01.294Z,83.63
2022-11-23T23:19:29.921Z,84.00
2022-11-23T23:21:59.597Z,83.69
2022-11-23T23:24:51.247Z,84.63
2022-11-23T23:27:19.568Z,84.48
2022-11-23T23:29:47.852Z,84.03
2022-11-23T23:32:16.913Z,84.00
2022-11-23T23:34:45.233Z,84.12
2022-11-23T23:37:14.940Z,84.41
2022-11-23T23:39:45.814Z,84.55
2022-11-23T23:42:14.248Z,84.19
2022-11-23T23:44:43.251Z,84.54
2022-11-23T23:47:11.586Z,84.07
2022-11-23T23:49:39.894Z,84.18
2022-11-23T23:52:08.199Z,84.16
2022-11-23T23:54:37.927Z,83.81
2022-11-23T23:57:06.581Z,84.10
2022-11-23T23:59:34.919Z,83.94
